Terminal Aerodrome Forecast
Issued by NWS

Home | Current Version | Previous Version | Text Only | Print | Product List | Glossary Off
Versions: 1 2 3 4 5 6 7 8 9 10 11 12 13 14 15 16 17 18 19 20

000
FTUS43 KMPX 251700
TAFAXN
TAF
KAXN 251734Z 2518/2618 19006KT P6SM BKN035 OVC070
     FM252200 14008KT P6SM SCT020 OVC080
     FM260500 10009KT 4SM -SN OVC020
     FM260800 08007KT 2SM -SN OVC015
     FM261300 02015KT 6SM -SN OVC012=

USA.gov is the U.S. government's official web portal to all federal, state and local government web resources and services.